sensor_id;sensor_type;location;lat;lon;timestamp;pressure;altitude;pressure_sealevel;temperature;humidity
23635;BME280;11994;51.038;16.974;2023-03-14T00:00:56;98423.29;;;11.83;63.82
23635;BME280;11994;51.038;16.974;2023-03-14T00:03:22;98412.95;;;11.80;64.08
23635;BME280;11994;51.038;16.974;2023-03-14T00:05:47;98409.31;;;11.77;64.06
23635;BME280;11994;51.038;16.974;2023-03-14T00:08:12;98404.27;;;11.73;64.02
23635;BME280;11994;51.038;16.974;2023-03-14T00:10:38;98402.77;;;11.72;64.06
23635;BME280;11994;51.038;16.974;2023-03-14T00:13:04;98408.06;;;11.71;64.20
23635;BME280;11994;51.038;16.974;2023-03-14T00:15:29;98409.04;;;11.69;64.27
23635;BME280;11994;51.038;16.974;2023-03-14T00:17:55;98405.36;;;11.69;64.35
23635;BME280;11994;51.038;16.974;2023-03-14T00:20:20;98399.46;;;11.72;64.34
23635;BME280;11994;51.038;16.974;2023-03-14T00:22:45;98393.79;;;11.69;64.47
23635;BME280;11994;51.038;16.974;2023-03-14T00:25:11;98393.31;;;11.66;64.41
23635;BME280;11994;51.038;16.974;2023-03-14T00:27:37;98392.59;;;11.66;64.66
23635;BME280;11994;51.038;16.974;2023-03-14T00:30:03;98391.50;;;11.64;64.70
23635;BME280;11994;51.038;16.974;2023-03-14T00:32:29;98397.86;;;11.60;64.80
23635;BME280;11994;51.038;16.974;2023-03-14T00:34:55;98401.21;;;11.59;64.89
23635;BME280;11994;51.038;16.974;2023-03-14T00:37:20;98391.79;;;11.59;64.95
23635;BME280;11994;51.038;16.974;2023-03-14T00:39:45;98394.36;;;11.56;64.98
23635;BME280;11994;51.038;16.974;2023-03-14T00:42:11;98393.80;;;11.50;65.02
23635;BME280;11994;51.038;16.974;2023-03-14T00:44:36;98396.76;;;11.48;65.11
23635;BME280;11994;51.038;16.974;2023-03-14T00:47:02;98392.17;;;11.48;65.22
23635;BME280;11994;51.038;16.974;2023-03-14T00:49:27;98390.14;;;11.47;65.14
23635;BME280;11994;51.038;16.974;2023-03-14T00:51:53;98394.16;;;11.47;65.08
23635;BME280;11994;51.038;16.974;2023-03-14T00:54:19;98407.61;;;11.51;65.18
23635;BME280;11994;51.038;16.974;2023-03-14T00:56:45;98452.54;;;11.52;65.04
23635;BME280;11994;51.038;16.974;2023-03-14T00:59:10;98485.11;;;11.62;65.16
23635;BME280;11994;51.038;16.974;2023-03-14T01:01:36;98457.15;;;11.67;65.05
23635;BME280;11994;51.038;16.974;2023-03-14T01:04:01;98444.63;;;11.68;64.98
23635;BME280;11994;51.038;16.974;2023-03-14T01:06:28;98445.63;;;11.70;65.07
23635;BME280;11994;51.038;16.974;2023-03-14T01:08:55;98442.71;;;11.72;65.28
23635;BME280;11994;51.038;16.974;2023-03-14T01:11:30;98442.06;;;11.71;65.49
23635;BME280;11994;51.038;16.974;2023-03-14T01:13:56;98439.86;;;11.69;65.61
23635;BME280;11994;51.038;16.974;2023-03-14T01:16:23;98427.08;;;11.66;65.42
23635;BME280;11994;51.038;16.974;2023-03-14T01:18:49;98422.52;;;11.67;65.24
23635;BME280;11994;51.038;16.974;2023-03-14T01:21:21;98427.51;;;11.68;65.51
23635;BME280;11994;51.038;16.974;2023-03-14T01:23:48;98432.61;;;11.67;65.65
23635;BME280;11994;51.038;16.974;2023-03-14T01:26:16;98421.79;;;11.64;65.74
23635;BME280;11994;51.038;16.974;2023-03-14T01:28:45;98418.49;;;11.60;65.82
23635;BME280;11994;51.038;16.974;2023-03-14T01:31:11;98412.88;;;11.57;65.90
23635;BME280;11994;51.038;16.974;2023-03-14T01:33:38;98398.67;;;11.54;66.04
23635;BME280;11994;51.038;16.974;2023-03-14T01:36:04;98379.36;;;11.52;66.03
23635;BME280;11994;51.038;16.974;2023-03-14T01:38:31;98363.52;;;11.50;65.96
23635;BME280;11994;51.038;16.974;2023-03-14T01:40:58;98348.12;;;11.50;66.03
23635;BME280;11994;51.038;16.974;2023-03-14T01:43:24;98342.20;;;11.50;66.18
23635;BME280;11994;51.038;16.974;2023-03-14T01:48:47;98363.75;;;11.52;67.31
23635;BME280;11994;51.038;16.974;2023-03-14T01:51:27;98363.63;;;11.52;67.46
23635;BME280;11994;51.038;16.974;2023-03-14T01:53:59;98352.04;;;11.49;67.78
23635;BME280;11994;51.038;16.974;2023-03-14T01:56:26;98343.10;;;11.49;67.86
23635;BME280;11994;51.038;16.974;2023-03-14T01:58:52;98336.38;;;11.51;67.89
23635;BME280;11994;51.038;16.974;2023-03-14T02:01:21;98320.61;;;11.51;68.37
23635;BME280;11994;51.038;16.974;2023-03-14T02:04:01;98313.51;;;11.52;68.59
23635;BME280;11994;51.038;16.974;2023-03-14T02:09:28;98283.77;;;11.49;67.90
23635;BME280;11994;51.038;16.974;2023-03-14T02:11:54;98279.27;;;11.48;67.93
23635;BME280;11994;51.038;16.974;2023-03-14T02:14:33;98274.67;;;11.46;67.83
23635;BME280;11994;51.038;16.974;2023-03-14T02:17:02;98284.77;;;11.41;67.73
23635;BME280;11994;51.038;16.974;2023-03-14T02:22:16;98277.20;;;11.21;68.29
23635;BME280;11994;51.038;16.974;2023-03-14T02:27:26;98247.95;;;10.97;69.06
23635;BME280;11994;51.038;16.974;2023-03-14T02:29:53;98232.33;;;10.92;69.15
23635;BME280;11994;51.038;16.974;2023-03-14T02:32:21;98231.00;;;10.88;69.11
23635;BME280;11994;51.038;16.974;2023-03-14T02:34:51;98231.32;;;10.85;69.28
23635;BME280;11994;51.038;16.974;2023-03-14T02:37:20;98226.44;;;10.82;69.31
23635;BME280;11994;51.038;16.974;2023-03-14T02:39:47;98216.06;;;10.83;69.25
23635;BME280;11994;51.038;16.974;2023-03-14T02:42:15;98214.38;;;10.88;68.96
23635;BME280;11994;51.038;16.974;2023-03-14T02:47:34;98214.91;;;11.06;67.90
23635;BME280;11994;51.038;16.974;2023-03-14T02:50:06;98216.92;;;11.14;67.21
23635;BME280;11994;51.038;16.974;2023-03-14T02:52:33;98220.65;;;11.19;67.14
23635;BME280;11994;51.038;16.974;2023-03-14T02:54:58;98222.02;;;11.19;67.03
23635;BME280;11994;51.038;16.974;2023-03-14T02:57:24;98208.69;;;11.17;67.05
23635;BME280;11994;51.038;16.974;2023-03-14T02:59:49;98191.63;;;11.12;66.96
23635;BME280;11994;51.038;16.974;2023-03-14T03:02:14;98181.48;;;11.07;67.08
23635;BME280;11994;51.038;16.974;2023-03-14T03:04:40;98179.39;;;11.03;66.94
23635;BME280;11994;51.038;16.974;2023-03-14T03:07:05;98170.52;;;11.02;67.07
23635;BME280;11994;51.038;16.974;2023-03-14T03:09:30;98161.23;;;10.99;67.21
23635;BME280;11994;51.038;16.974;2023-03-14T03:11:56;98160.66;;;11.04;67.18
23635;BME280;11994;51.038;16.974;2023-03-14T03:14:21;98159.38;;;11.07;66.86
23635;BME280;11994;51.038;16.974;2023-03-14T03:16:47;98165.36;;;11.12;66.66
23635;BME280;11994;51.038;16.974;2023-03-14T03:19:12;98168.81;;;11.16;66.62
23635;BME280;11994;51.038;16.974;2023-03-14T03:21:39;98171.02;;;11.17;66.77
23635;BME280;11994;51.038;16.974;2023-03-14T03:24:04;98161.36;;;11.18;66.80
23635;BME280;11994;51.038;16.974;2023-03-14T03:26:30;98157.77;;;11.20;66.76
23635;BME280;11994;51.038;16.974;2023-03-14T03:28:55;98164.80;;;11.22;66.68
23635;BME280;11994;51.038;16.974;2023-03-14T03:31:21;98160.13;;;11.21;66.82
23635;BME280;11994;51.038;16.974;2023-03-14T03:33:46;98159.94;;;11.16;67.22
23635;BME280;11994;51.038;16.974;2023-03-14T03:36:11;98150.73;;;11.09;67.52
23635;BME280;11994;51.038;16.974;2023-03-14T03:38:37;98152.95;;;11.04;67.69
23635;BME280;11994;51.038;16.974;2023-03-14T03:41:06;98148.98;;;11.06;67.80
23635;BME280;11994;51.038;16.974;2023-03-14T03:43:32;98130.69;;;11.10;67.88
23635;BME280;11994;51.038;16.974;2023-03-14T03:45:57;98124.66;;;11.17;67.52
23635;BME280;11994;51.038;16.974;2023-03-14T03:48:23;98119.04;;;11.21;67.51
23635;BME280;11994;51.038;16.974;2023-03-14T03:50:48;98115.94;;;11.23;66.95
23635;BME280;11994;51.038;16.974;2023-03-14T03:53:14;98129.00;;;11.21;66.99
23635;BME280;11994;51.038;16.974;2023-03-14T03:55:42;98125.05;;;11.20;67.09
23635;BME280;11994;51.038;16.974;2023-03-14T03:58:07;98125.16;;;11.21;67.09
23635;BME280;11994;51.038;16.974;2023-03-14T04:00:33;98126.07;;;11.23;66.90
23635;BME280;11994;51.038;16.974;2023-03-14T04:02:58;98109.83;;;11.25;66.94
23635;BME280;11994;51.038;16.974;2023-03-14T04:05:24;98109.05;;;11.27;67.00
23635;BME280;11994;51.038;16.974;2023-03-14T04:07:49;98114.37;;;11.28;67.23
23635;BME280;11994;51.038;16.974;2023-03-14T04:10:15;98110.77;;;11.30;67.12
23635;BME280;11994;51.038;16.974;2023-03-14T04:12:40;98097.86;;;11.32;67.37
23635;BME280;11994;51.038;16.974;2023-03-14T04:15:06;98094.64;;;11.36;67.05
23635;BME280;11994;51.038;16.974;2023-03-14T04:17:32;98084.42;;;11.40;66.90
23635;BME280;11994;51.038;16.974;2023-03-14T04:19:57;98090.02;;;11.46;66.30
23635;BME280;11994;51.038;16.974;2023-03-14T04:22:22;98081.27;;;11.54;65.83
23635;BME280;11994;51.038;16.974;2023-03-14T04:24:48;98078.29;;;11.60;65.55
23635;BME280;11994;51.038;16.974;2023-03-14T04:27:13;98068.66;;;11.66;65.54
23635;BME280;11994;51.038;16.974;2023-03-14T04:29:40;98059.48;;;11.73;64.63
23635;BME280;11994;51.038;16.974;2023-03-14T04:32:05;98056.20;;;11.75;64.95
23635;BME280;11994;51.038;16.974;2023-03-14T04:34:30;98041.23;;;11.73;64.98
23635;BME280;11994;51.038;16.974;2023-03-14T04:36:56;98031.27;;;11.70;65.28
23635;BME280;11994;51.038;16.974;2023-03-14T04:39:21;98042.35;;;11.66;65.52
23635;BME280;11994;51.038;16.974;2023-03-14T04:41:47;98043.20;;;11.64;65.80
23635;BME280;11994;51.038;16.974;2023-03-14T04:44:12;98057.27;;;11.61;66.41
23635;BME280;11994;51.038;16.974;2023-03-14T04:46:37;98072.55;;;11.60;67.08
23635;BME280;11994;51.038;16.974;2023-03-14T04:49:03;98043.04;;;11.58;66.86
23635;BME280;11994;51.038;16.974;2023-03-14T04:51:28;98039.81;;;11.60;66.54
23635;BME280;11994;51.038;16.974;2023-03-14T04:53:54;98040.85;;;11.62;66.38
23635;BME280;11994;51.038;16.974;2023-03-14T04:56:20;98043.36;;;11.64;66.47
23635;BME280;11994;51.038;16.974;2023-03-14T04:58:45;98059.49;;;11.64;66.61
23635;BME280;11994;51.038;16.974;2023-03-14T05:01:10;98070.08;;;11.63;66.79
23635;BME280;11994;51.038;16.974;2023-03-14T05:03:36;98069.66;;;11.61;66.65
23635;BME280;11994;51.038;16.974;2023-03-14T05:06:03;98080.33;;;11.58;66.79
23635;BME280;11994;51.038;16.974;2023-03-14T05:08:29;98081.02;;;11.56;66.77
23635;BME280;11994;51.038;16.974;2023-03-14T05:10:56;98058.71;;;11.53;66.35
23635;BME280;11994;51.038;16.974;2023-03-14T05:13:22;98046.29;;;11.53;66.17
23635;BME280;11994;51.038;16.974;2023-03-14T05:15:48;98040.79;;;11.52;66.19
23635;BME280;11994;51.038;16.974;2023-03-14T05:18:15;98031.83;;;11.50;66.40
23635;BME280;11994;51.038;16.974;2023-03-14T05:20:41;98032.18;;;11.50;66.16
23635;BME280;11994;51.038;16.974;2023-03-14T05:23:08;98015.90;;;11.47;66.05
23635;BME280;11994;51.038;16.974;2023-03-14T05:25:33;98007.60;;;11.40;66.32
23635;BME280;11994;51.038;16.974;2023-03-14T05:27:59;98010.67;;;11.33;66.78
23635;BME280;11994;51.038;16.974;2023-03-14T05:30:24;98019.56;;;11.22;67.30
23635;BME280;11994;51.038;16.974;2023-03-14T05:32:49;98021.36;;;11.13;67.92
23635;BME280;11994;51.038;16.974;2023-03-14T05:35:15;98021.67;;;11.08;68.34
23635;BME280;11994;51.038;16.974;2023-03-14T05:37:40;98026.39;;;11.06;68.26
23635;BME280;11994;51.038;16.974;2023-03-14T05:40:06;98044.30;;;11.04;68.13
23635;BME280;11994;51.038;16.974;2023-03-14T05:42:32;98057.86;;;11.03;68.28
23635;BME280;11994;51.038;16.974;2023-03-14T05:44:58;98062.59;;;11.00;68.37
23635;BME280;11994;51.038;16.974;2023-03-14T05:47:24;98060.46;;;10.97;68.58
23635;BME280;11994;51.038;16.974;2023-03-14T05:49:49;98065.67;;;10.95;68.83
23635;BME280;11994;51.038;16.974;2023-03-14T05:52:14;98063.35;;;10.93;68.90
23635;BME280;11994;51.038;16.974;2023-03-14T05:54:40;98053.59;;;10.92;69.03
23635;BME280;11994;51.038;16.974;2023-03-14T05:57:06;98044.44;;;10.94;68.99
23635;BME280;11994;51.038;16.974;2023-03-14T05:59:31;98041.60;;;10.91;69.02
23635;BME280;11994;51.038;16.974;2023-03-14T06:01:57;98049.54;;;10.90;69.33
23635;BME280;11994;51.038;16.974;2023-03-14T06:04:22;98052.89;;;10.92;69.40
23635;BME280;11994;51.038;16.974;2023-03-14T06:06:47;98057.66;;;10.94;69.32
23635;BME280;11994;51.038;16.974;2023-03-14T06:09:13;98057.57;;;10.96;69.33
23635;BME280;11994;51.038;16.974;2023-03-14T06:11:38;98051.23;;;10.96;69.38
23635;BME280;11994;51.038;16.974;2023-03-14T06:14:04;98049.01;;;10.96;69.41
23635;BME280;11994;51.038;16.974;2023-03-14T06:16:29;98048.69;;;10.95;69.43
23635;BME280;11994;51.038;16.974;2023-03-14T06:18:54;98051.31;;;10.95;69.42
23635;BME280;11994;51.038;16.974;2023-03-14T06:21:21;98055.66;;;10.99;69.53
23635;BME280;11994;51.038;16.974;2023-03-14T06:23:46;98037.74;;;11.05;69.24
23635;BME280;11994;51.038;16.974;2023-03-14T06:26:11;98044.29;;;11.13;69.28
23635;BME280;11994;51.038;16.974;2023-03-14T06:28:37;98065.08;;;11.19;69.25
23635;BME280;11994;51.038;16.974;2023-03-14T06:31:03;98086.60;;;11.25;69.10
23635;BME280;11994;51.038;16.974;2023-03-14T06:33:29;98083.23;;;11.29;68.98
23635;BME280;11994;51.038;16.974;2023-03-14T06:35:54;98072.67;;;11.32;68.73
23635;BME280;11994;51.038;16.974;2023-03-14T06:38:19;98073.56;;;11.35;68.53
23635;BME280;11994;51.038;16.974;2023-03-14T06:40:45;98068.77;;;11.36;68.53
23635;BME280;11994;51.038;16.974;2023-03-14T06:43:10;98065.40;;;11.36;68.52
23635;BME280;11994;51.038;16.974;2023-03-14T06:45:36;98072.55;;;11.37;68.39
23635;BME280;11994;51.038;16.974;2023-03-14T06:48:01;98081.02;;;11.39;68.44
23635;BME280;11994;51.038;16.974;2023-03-14T06:50:27;98084.29;;;11.37;68.70
23635;BME280;11994;51.038;16.974;2023-03-14T06:52:52;98087.00;;;11.38;68.59
23635;BME280;11994;51.038;16.974;2023-03-14T06:55:17;98094.38;;;11.43;68.77
23635;BME280;11994;51.038;16.974;2023-03-14T06:57:43;98093.31;;;11.46;68.73
23635;BME280;11994;51.038;16.974;2023-03-14T07:00:10;98090.69;;;11.49;68.98
23635;BME280;11994;51.038;16.974;2023-03-14T07:02:36;98085.95;;;11.49;69.06
23635;BME280;11994;51.038;16.974;2023-03-14T07:05:01;98079.71;;;11.48;69.24
23635;BME280;11994;51.038;16.974;2023-03-14T07:07:27;98091.45;;;11.48;69.20
23635;BME280;11994;51.038;16.974;2023-03-14T07:09:53;98096.49;;;11.49;69.26
23635;BME280;11994;51.038;16.974;2023-03-14T07:12:18;98097.19;;;11.49;69.24
23635;BME280;11994;51.038;16.974;2023-03-14T07:14:44;98111.02;;;11.46;69.38
23635;BME280;11994;51.038;16.974;2023-03-14T07:17:09;98119.75;;;11.46;69.46
23635;BME280;11994;51.038;16.974;2023-03-14T07:19:35;98122.22;;;11.46;69.39
23635;BME280;11994;51.038;16.974;2023-03-14T07:22:00;98128.76;;;11.45;69.36
23635;BME280;11994;51.038;16.974;2023-03-14T07:24:26;98123.57;;;11.41;69.21
23635;BME280;11994;51.038;16.974;2023-03-14T07:26:51;98114.46;;;11.35;69.36
23635;BME280;11994;51.038;16.974;2023-03-14T07:29:16;98111.73;;;11.34;69.37
23635;BME280;11994;51.038;16.974;2023-03-14T07:31:42;98098.88;;;11.36;69.57
23635;BME280;11994;51.038;16.974;2023-03-14T07:34:07;98093.57;;;11.37;69.66
23635;BME280;11994;51.038;16.974;2023-03-14T07:36:32;98116.38;;;11.39;69.66
23635;BME280;11994;51.038;16.974;2023-03-14T07:38:58;98122.17;;;11.44;69.57
23635;BME280;11994;51.038;16.974;2023-03-14T07:41:23;98106.22;;;11.44;69.39
23635;BME280;11994;51.038;16.974;2023-03-14T07:43:49;98095.98;;;11.43;69.26
23635;BME280;11994;51.038;16.974;2023-03-14T07:46:14;98090.30;;;11.39;69.29
23635;BME280;11994;51.038;16.974;2023-03-14T07:48:40;98089.80;;;11.33;69.10
23635;BME280;11994;51.038;16.974;2023-03-14T07:51:06;98086.51;;;11.23;69.38
23635;BME280;11994;51.038;16.974;2023-03-14T07:53:31;98086.79;;;11.13;69.59
23635;BME280;11994;51.038;16.974;2023-03-14T07:55:57;98116.13;;;11.05;69.88
23635;BME280;11994;51.038;16.974;2023-03-14T07:58:22;98123.73;;;11.00;70.18
23635;BME280;11994;51.038;16.974;2023-03-14T08:00:48;98108.05;;;10.97;70.53
23635;BME280;11994;51.038;16.974;2023-03-14T08:03:14;98109.70;;;10.93;70.83
23635;BME280;11994;51.038;16.974;2023-03-14T08:05:39;98109.94;;;10.89;71.19
23635;BME280;11994;51.038;16.974;2023-03-14T08:08:05;98111.48;;;10.87;70.97
23635;BME280;11994;51.038;16.974;2023-03-14T08:10:31;98096.30;;;10.86;71.12
23635;BME280;11994;51.038;16.974;2023-03-14T08:12:58;98075.17;;;10.82;71.19
23635;BME280;11994;51.038;16.974;2023-03-14T08:15:24;98062.57;;;10.80;71.16
23635;BME280;11994;51.038;16.974;2023-03-14T08:17:50;98075.10;;;10.78;71.25
23635;BME280;11994;51.038;16.974;2023-03-14T08:20:17;98084.79;;;10.77;71.46
23635;BME280;11994;51.038;16.974;2023-03-14T08:22:42;98104.14;;;10.74;71.70
23635;BME280;11994;51.038;16.974;2023-03-14T08:25:08;98117.23;;;10.78;71.90
23635;BME280;11994;51.038;16.974;2023-03-14T08:27:33;98135.02;;;10.87;71.97
23635;BME280;11994;51.038;16.974;2023-03-14T08:29:59;98129.52;;;10.95;71.92
23635;BME280;11994;51.038;16.974;2023-03-14T08:32:24;98136.36;;;10.98;71.83
23635;BME280;11994;51.038;16.974;2023-03-14T08:34:50;98143.13;;;10.99;71.96
23635;BME280;11994;51.038;16.974;2023-03-14T08:37:15;98143.35;;;10.97;71.91
23635;BME280;11994;51.038;16.974;2023-03-14T08:39:40;98145.41;;;10.98;71.94
23635;BME280;11994;51.038;16.974;2023-03-14T08:42:06;98145.67;;;11.00;71.86
23635;BME280;11994;51.038;16.974;2023-03-14T08:44:31;98156.13;;;11.00;71.79
23635;BME280;11994;51.038;16.974;2023-03-14T08:46:57;98159.21;;;11.04;71.68
23635;BME280;11994;51.038;16.974;2023-03-14T08:49:22;98164.41;;;11.11;71.57
23635;BME280;11994;51.038;16.974;2023-03-14T08:51:48;98162.14;;;11.17;71.47
23635;BME280;11994;51.038;16.974;2023-03-14T08:54:13;98160.70;;;11.23;71.30
23635;BME280;11994;51.038;16.974;2023-03-14T08:56:38;98156.46;;;11.27;70.66
23635;BME280;11994;51.038;16.974;2023-03-14T08:59:05;98150.35;;;11.29;70.78
23635;BME280;11994;51.038;16.974;2023-03-14T09:01:30;98144.38;;;11.33;70.74
23635;BME280;11994;51.038;16.974;2023-03-14T09:03:56;98140.68;;;11.36;70.72
23635;BME280;11994;51.038;16.974;2023-03-14T09:06:21;98143.51;;;11.36;70.26
23635;BME280;11994;51.038;16.974;2023-03-14T09:08:47;98146.69;;;11.32;70.44
23635;BME280;11994;51.038;16.974;2023-03-14T09:11:12;98142.86;;;11.32;70.54
23635;BME280;11994;51.038;16.974;2023-03-14T09:13:38;98137.23;;;11.32;70.46
23635;BME280;11994;51.038;16.974;2023-03-14T09:16:03;98137.27;;;11.34;70.40
23635;BME280;11994;51.038;16.974;2023-03-14T09:18:29;98143.33;;;11.36;70.42
23635;BME280;11994;51.038;16.974;2023-03-14T09:20:55;98139.41;;;11.37;70.13
23635;BME280;11994;51.038;16.974;2023-03-14T09:23:21;98130.43;;;11.38;70.01
23635;BME280;11994;51.038;16.974;2023-03-14T09:25:46;98132.05;;;11.37;70.19
23635;BME280;11994;51.038;16.974;2023-03-14T09:28:11;98134.90;;;11.39;69.90
23635;BME280;11994;51.038;16.974;2023-03-14T09:30:38;98145.20;;;11.39;69.75
23635;BME280;11994;51.038;16.974;2023-03-14T09:33:03;98151.67;;;11.39;69.85
23635;BME280;11994;51.038;16.974;2023-03-14T09:35:29;98163.55;;;11.43;69.91
23635;BME280;11994;51.038;16.974;2023-03-14T09:37:54;98176.45;;;11.46;70.15
23635;BME280;11994;51.038;16.974;2023-03-14T09:40:21;98187.11;;;11.49;70.14
23635;BME280;11994;51.038;16.974;2023-03-14T09:42:51;98194.17;;;11.52;70.13
23635;BME280;11994;51.038;16.974;2023-03-14T09:45:32;98196.68;;;11.53;69.96
23635;BME280;11994;51.038;16.974;2023-03-14T09:47:59;98199.29;;;11.53;69.94
23635;BME280;11994;51.038;16.974;2023-03-14T09:50:32;98198.23;;;11.53;69.93
23635;BME280;11994;51.038;16.974;2023-03-14T09:53:04;98202.88;;;11.55;70.00
23635;BME280;11994;51.038;16.974;2023-03-14T09:55:32;98208.81;;;11.56;70.18
23635;BME280;11994;51.038;16.974;2023-03-14T09:58:00;98208.60;;;11.56;70.32
23635;BME280;11994;51.038;16.974;2023-03-14T10:00:29;98205.72;;;11.55;70.64
23635;BME280;11994;51.038;16.974;2023-03-14T10:05:40;98200.80;;;11.58;71.43
23635;BME280;11994;51.038;16.974;2023-03-14T10:08:06;98202.77;;;11.61;71.77
23635;BME280;11994;51.038;16.974;2023-03-14T10:10:32;98201.84;;;11.64;71.93
23635;BME280;11994;51.038;16.974;2023-03-14T10:12:59;98192.77;;;11.69;72.06
23635;BME280;11994;51.038;16.974;2023-03-14T10:15:31;98195.62;;;11.74;72.14
23635;BME280;11994;51.038;16.974;2023-03-14T10:17:59;98196.94;;;11.78;72.18
23635;BME280;11994;51.038;16.974;2023-03-14T10:20:37;98193.96;;;11.79;72.47
23635;BME280;11994;51.038;16.974;2023-03-14T10:23:06;98193.17;;;11.74;72.62
23635;BME280;11994;51.038;16.974;2023-03-14T10:25:34;98190.63;;;11.76;72.72
23635;BME280;11994;51.038;16.974;2023-03-14T10:28:00;98187.94;;;11.80;73.12
23635;BME280;11994;51.038;16.974;2023-03-14T10:30:45;98187.80;;;11.82;73.38
23635;BME280;11994;51.038;16.974;2023-03-14T10:33:20;98184.05;;;11.83;73.50
23635;BME280;11994;51.038;16.974;2023-03-14T10:35:51;98175.46;;;11.88;73.61
23635;BME280;11994;51.038;16.974;2023-03-14T10:38:18;98167.85;;;11.98;73.59
23635;BME280;11994;51.038;16.974;2023-03-14T10:40:52;98160.33;;;12.09;73.20
23635;BME280;11994;51.038;16.974;2023-03-14T10:43:22;98159.37;;;12.18;72.93
23635;BME280;11994;51.038;16.974;2023-03-14T10:45:57;98160.25;;;12.26;72.64
23635;BME280;11994;51.038;16.974;2023-03-14T10:48:33;98156.35;;;12.32;72.85
23635;BME280;11994;51.038;16.974;2023-03-14T10:56:15;98151.15;;;12.56;72.72
23635;BME280;11994;51.038;16.974;2023-03-14T10:58:43;98150.65;;;12.64;72.52
23635;BME280;11994;51.038;16.974;2023-03-14T11:03:49;98157.73;;;12.78;72.37
23635;BME280;11994;51.038;16.974;2023-03-14T11:06:31;98154.70;;;12.84;72.25
23635;BME280;11994;51.038;16.974;2023-03-14T11:11:32;98150.81;;;12.95;71.94
23635;BME280;11994;51.038;16.974;2023-03-14T11:17:11;98146.85;;;12.97;71.54
23635;BME280;11994;51.038;16.974;2023-03-14T11:23:36;98126.52;;;13.02;71.04
23635;BME280;11994;51.038;16.974;2023-03-14T11:28:46;98132.71;;;13.11;71.46
23635;BME280;11994;51.038;16.974;2023-03-14T11:31:16;98126.02;;;13.22;71.60
23635;BME280;11994;51.038;16.974;2023-03-14T11:36:41;98117.21;;;13.35;71.23
23635;BME280;11994;51.038;16.974;2023-03-14T11:39:17;98115.10;;;13.38;70.95
23635;BME280;11994;51.038;16.974;2023-03-14T11:41:46;98117.12;;;13.42;70.58
23635;BME280;11994;51.038;16.974;2023-03-14T11:44:38;98114.48;;;13.44;70.29
23635;BME280;11994;51.038;16.974;2023-03-14T11:47:20;98102.98;;;13.48;69.62
23635;BME280;11994;51.038;16.974;2023-03-14T11:53:43;98105.59;;;13.56;69.79
23635;BME280;11994;51.038;16.974;2023-03-14T11:56:45;98109.73;;;13.64;69.02
23635;BME280;11994;51.038;16.974;2023-03-14T11:59:17;98103.62;;;13.66;68.67
23635;BME280;11994;51.038;16.974;2023-03-14T12:01:53;98104.61;;;13.62;68.84
23635;BME280;11994;51.038;16.974;2023-03-14T12:04:51;98101.91;;;13.60;68.91
23635;BME280;11994;51.038;16.974;2023-03-14T12:07:22;98099.96;;;13.56;68.64
23635;BME280;11994;51.038;16.974;2023-03-14T12:09:50;98101.49;;;13.49;68.91
23635;BME280;11994;51.038;16.974;2023-03-14T12:12:20;98099.91;;;13.44;69.11
23635;BME280;11994;51.038;16.974;2023-03-14T12:14:58;98097.05;;;13.42;69.13
23635;BME280;11994;51.038;16.974;2023-03-14T12:22:36;98081.64;;;13.39;69.52
23635;BME280;11994;51.038;16.974;2023-03-14T12:28:03;98088.31;;;13.32;70.05
23635;BME280;11994;51.038;16.974;2023-03-14T12:30:36;98096.70;;;13.27;70.37
23635;BME280;11994;51.038;16.974;2023-03-14T12:36:11;98091.54;;;13.18;70.98
23635;BME280;11994;51.038;16.974;2023-03-14T12:38:51;98083.62;;;13.16;71.27
23635;BME280;11994;51.038;16.974;2023-03-14T12:41:37;98088.02;;;13.13;71.50
23635;BME280;11994;51.038;16.974;2023-03-14T12:49:43;98091.84;;;13.08;72.35
23635;BME280;11994;51.038;16.974;2023-03-14T12:52:36;98089.25;;;13.03;72.56
23635;BME280;11994;51.038;16.974;2023-03-14T12:55:12;98088.73;;;12.97;72.92
23635;BME280;11994;51.038;16.974;2023-03-14T12:57:59;98082.92;;;12.95;73.35
23635;BME280;11994;51.038;16.974;2023-03-14T13:00:31;98076.91;;;12.93;73.51
23635;BME280;11994;51.038;16.974;2023-03-14T13:03:21;98077.17;;;12.92;73.56
23635;BME280;11994;51.038;16.974;2023-03-14T13:06:00;98072.19;;;12.90;73.58
23635;BME280;11994;51.038;16.974;2023-03-14T13:08:44;98071.38;;;12.92;73.50
23635;BME280;11994;51.038;16.974;2023-03-14T13:11:18;98075.36;;;12.92;73.57
23635;BME280;11994;51.038;16.974;2023-03-14T13:13:49;98073.73;;;12.96;73.46
23635;BME280;11994;51.038;16.974;2023-03-14T13:16:19;98069.86;;;13.01;73.15
23635;BME280;11994;51.038;16.974;2023-03-14T13:18:47;98067.97;;;13.06;72.84
23635;BME280;11994;51.038;16.974;2023-03-14T13:21:24;98067.60;;;13.09;72.76
23635;BME280;11994;51.038;16.974;2023-03-14T13:23:58;98068.11;;;13.14;72.55
23635;BME280;11994;51.038;16.974;2023-03-14T13:26:39;98070.86;;;13.20;71.91
23635;BME280;11994;51.038;16.974;2023-03-14T13:29:29;98064.84;;;13.26;71.18
23635;BME280;11994;51.038;16.974;2023-03-14T13:31:59;98068.98;;;13.30;71.17
23635;BME280;11994;51.038;16.974;2023-03-14T13:34:29;98066.79;;;13.28;71.27
23635;BME280;11994;51.038;16.974;2023-03-14T13:36:55;98069.98;;;13.22;71.87
23635;BME280;11994;51.038;16.974;2023-03-14T13:39:23;98071.27;;;13.21;71.99
23635;BME280;11994;51.038;16.974;2023-03-14T13:41:51;98069.33;;;13.19;72.10
23635;BME280;11994;51.038;16.974;2023-03-14T13:46:49;98070.55;;;13.10;72.34
23635;BME280;11994;51.038;16.974;2023-03-14T13:49:22;98075.73;;;13.03;72.62
23635;BME280;11994;51.038;16.974;2023-03-14T13:51:49;98074.70;;;12.94;72.90
23635;BME280;11994;51.038;16.974;2023-03-14T13:54:16;98078.91;;;12.89;73.24
23635;BME280;11994;51.038;16.974;2023-03-14T13:56:42;98073.55;;;12.86;73.48